createdAt,value
2022-11-12T00:00:25.440Z,219.37
2022-11-12T00:05:25.410Z,218.65
2022-11-12T00:10:25.400Z,218.79
2022-11-12T00:15:25.263Z,218.65
2022-11-12T00:20:25.195Z,219.66
2022-11-12T00:25:25.132Z,219.37
2022-11-12T00:30:25.037Z,218.07
2022-11-12T00:35:24.997Z,217.36
2022-11-12T00:40:24.926Z,218.51
2022-11-12T00:45:24.846Z,218.22
2022-11-12T00:50:24.820Z,218.07
2022-11-12T00:55:24.746Z,218.36
2022-11-12T01:00:24.654Z,217.93
2022-11-12T01:05:44.017Z,219.08
2022-11-12T01:10:36.063Z,217.79
2022-11-12T01:15:36.000Z,218.36
2022-11-12T01:20:35.938Z,217.79
2022-11-12T01:25:35.864Z,219.23
2022-11-12T01:30:35.822Z,218.65
2022-11-12T01:35:35.736Z,217.79
2022-11-12T01:40:35.663Z,218.94
2022-11-12T01:45:35.604Z,218.79
2022-11-12T01:50:35.871Z,218.94
2022-11-12T01:55:35.455Z,219.08
2022-11-12T02:00:35.415Z,218.94
2022-11-12T02:05:35.349Z,220.98
2022-11-12T02:10:35.284Z,220.83
2022-11-12T02:15:35.211Z,219.66
2022-11-12T02:20:35.176Z,219.37
2022-11-12T02:25:35.067Z,220.83
2022-11-12T02:30:35.032Z,220.54
2022-11-12T02:35:34.970Z,220.98
2022-11-12T02:40:34.884Z,221.42
2022-11-12T02:45:34.826Z,221.72
2022-11-12T02:50:34.800Z,220.98
2022-11-12T02:55:34.667Z,221.13
2022-11-12T03:00:34.627Z,220.10
2022-11-12T03:05:34.568Z,222.16
2022-11-12T03:10:34.476Z,221.13
2022-11-12T03:15:34.430Z,220.98
2022-11-12T03:20:34.368Z,221.42
2022-11-12T03:25:34.277Z,221.72
2022-11-12T03:30:34.233Z,220.98
2022-11-12T03:35:34.167Z,221.72
2022-11-12T03:40:34.081Z,222.31
2022-11-12T03:45:34.033Z,223.06
2022-11-12T03:50:33.971Z,223.66
2022-11-12T03:55:33.890Z,223.81
2022-11-12T04:00:33.842Z,225.03
2022-11-12T04:05:33.803Z,224.87
2022-11-12T04:10:33.681Z,226.41
2022-11-12T04:15:33.665Z,226.41
2022-11-12T04:20:33.577Z,227.34
2022-11-12T04:25:33.489Z,228.59
2022-11-12T04:30:33.498Z,227.65
2022-11-12T04:35:33.366Z,227.96
2022-11-12T04:40:33.283Z,228.28
2022-11-12T04:45:33.263Z,229.86
2022-11-12T04:50:33.173Z,229.86
2022-11-12T04:55:33.153Z,229.54
2022-11-12T05:00:33.021Z,229.70
2022-11-12T05:05:34.182Z,229.70
2022-11-12T05:10:32.904Z,230.66
2022-11-12T05:15:47.689Z,230.82
2022-11-12T05:20:40.077Z,230.66
2022-11-12T05:25:40.006Z,230.02
2022-11-12T05:30:39.945Z,230.66
2022-11-12T05:35:39.877Z,230.82
2022-11-12T05:40:39.820Z,232.11
2022-11-12T05:45:39.738Z,231.95
2022-11-12T05:51:06.266Z,232.60
2022-11-12T05:55:40.596Z,234.07
2022-11-12T06:00:39.528Z,233.42
2022-11-12T06:05:39.477Z,234.24
2022-11-12T06:10:39.409Z,235.24
2022-11-12T06:15:39.669Z,235.40
2022-11-12T06:20:39.338Z,235.07
2022-11-12T06:25:39.209Z,235.07
2022-11-12T06:30:39.140Z,234.90
2022-11-12T06:35:42.780Z,235.07
2022-11-12T06:40:39.001Z,234.57
2022-11-12T06:45:38.930Z,235.07
2022-11-12T06:50:38.872Z,235.91
2022-11-12T06:55:38.815Z,235.40
2022-11-12T07:00:38.761Z,235.74
2022-11-12T07:05:38.677Z,235.74
2022-11-12T07:10:38.617Z,236.92
2022-11-12T07:15:38.534Z,235.91
2022-11-12T07:20:38.502Z,235.57
2022-11-12T07:25:38.415Z,235.07
2022-11-12T07:30:38.346Z,236.75
2022-11-12T07:35:38.285Z,237.09
2022-11-12T07:40:38.206Z,235.40
2022-11-12T07:45:38.158Z,234.74
2022-11-12T07:50:38.087Z,235.07
2022-11-12T07:55:38.018Z,234.90
2022-11-12T08:00:37.990Z,235.91
2022-11-12T08:05:37.891Z,235.40
2022-11-12T08:10:37.827Z,235.57
2022-11-12T08:15:37.737Z,234.74
2022-11-12T08:20:37.688Z,235.91
2022-11-12T08:25:37.630Z,236.07
2022-11-12T08:30:37.550Z,235.91
2022-11-12T08:35:37.495Z,234.74
2022-11-12T08:40:37.424Z,235.91
2022-11-12T08:45:37.418Z,234.90
2022-11-12T08:50:37.279Z,233.25
2022-11-12T08:55:37.219Z,232.27
2022-11-12T09:00:37.149Z,231.46
2022-11-12T09:05:37.092Z,229.22
2022-11-12T09:10:37.031Z,228.28
2022-11-12T09:15:38.333Z,227.18
2022-11-12T09:20:36.903Z,224.57
2022-11-12T09:25:36.855Z,224.12
2022-11-12T09:30:36.765Z,222.01
2022-11-12T09:35:36.706Z,220.69
2022-11-12T09:40:36.637Z,218.94
2022-11-12T09:45:36.588Z,218.36
2022-11-12T09:50:36.500Z,217.79
2022-11-12T09:55:36.456Z,216.93
2022-11-12T10:00:38.203Z,215.95
2022-11-12T10:05:36.330Z,214.41
2022-11-12T10:10:36.255Z,214.41
2022-11-12T10:15:36.174Z,213.17
2022-11-12T10:20:38.801Z,212.49
2022-11-12T10:25:36.067Z,211.27
2022-11-12T10:30:35.982Z,211.00
2022-11-12T10:35:35.893Z,209.14
2022-11-12T10:40:35.854Z,208.48
2022-11-12T10:45:35.774Z,208.22
2022-11-12T10:50:35.717Z,207.18
2022-11-12T10:55:35.642Z,206.92
2022-11-12T11:00:35.589Z,204.25
2022-11-12T11:05:35.506Z,202.38
2022-11-12T11:10:35.455Z,200.30
2022-11-12T11:15:35.385Z,194.43
2022-11-12T11:20:35.305Z,188.47
2022-11-12T11:25:35.282Z,184.83
2022-11-12T11:30:35.251Z,182.43
2022-11-12T11:35:35.114Z,177.44
2022-11-12T11:40:35.037Z,174.51
2022-11-12T11:45:34.982Z,170.28
2022-11-12T11:50:34.927Z,167.91
2022-11-12T11:55:34.854Z,163.99
2022-11-12T12:00:34.791Z,159.20
2022-11-12T12:05:34.712Z,157.71
2022-11-12T12:10:53.677Z,154.96
2022-11-12T12:15:35.591Z,152.99
2022-11-12T12:20:34.541Z,151.48
2022-11-12T12:25:34.460Z,151.07
2022-11-12T12:30:34.389Z,148.81
2022-11-12T12:35:34.323Z,147.64
2022-11-12T12:40:34.260Z,147.90
2022-11-12T12:45:36.118Z,149.07
2022-11-12T12:50:34.109Z,150.54
2022-11-12T12:55:34.060Z,152.58
2022-11-12T13:00:34.098Z,153.69
2022-11-12T13:05:33.928Z,152.44
2022-11-12T13:10:33.869Z,155.39
2022-11-12T13:15:33.847Z,153.83
2022-11-12T13:20:33.730Z,155.96
2022-11-12T13:25:33.670Z,155.53
2022-11-12T13:30:33.612Z,157.71
2022-11-12T13:35:33.531Z,158.15
2022-11-12T13:40:33.460Z,158.75
2022-11-12T13:45:33.402Z,159.05
2022-11-12T13:50:37.767Z,161.33
2022-11-12T13:55:34.265Z,161.64
2022-11-12T14:00:33.323Z,162.41
2022-11-12T14:05:33.137Z,163.68
2022-11-12T14:10:33.072Z,164.96
2022-11-12T14:15:32.998Z,165.60
2022-11-12T14:20:32.906Z,166.75
2022-11-12T14:25:32.863Z,167.41
2022-11-12T14:30:32.800Z,167.91
2022-11-12T14:35:32.727Z,169.43
2022-11-12T14:40:32.666Z,170.28
2022-11-12T14:45:35.281Z,170.80
2022-11-12T14:50:37.360Z,172.19
2022-11-12T14:55:34.795Z,173.25
2022-11-12T15:00:32.451Z,173.79
2022-11-12T15:05:32.326Z,174.15
2022-11-12T15:10:32.250Z,175.96
2022-11-12T15:15:32.203Z,177.07
2022-11-12T15:20:32.133Z,178.01
2022-11-12T15:25:32.092Z,178.57
2022-11-12T15:30:32.006Z,180.10
2022-11-12T15:35:31.940Z,181.06
2022-11-12T15:40:31.879Z,182.04
2022-11-12T15:45:31.820Z,183.22
2022-11-12T15:50:31.748Z,185.24
2022-11-12T15:55:31.764Z,186.67
2022-11-12T16:00:31.635Z,185.52
2022-11-12T16:05:31.556Z,186.67
2022-11-12T16:10:31.476Z,188.26
2022-11-12T16:15:31.401Z,189.55
2022-11-12T16:20:31.347Z,191.29
2022-11-12T16:25:31.307Z,192.63
2022-11-12T16:30:31.202Z,193.98
2022-11-12T16:35:31.121Z,195.46
2022-11-12T16:40:31.191Z,196.62
2022-11-12T16:45:31.017Z,197.79
2022-11-12T16:50:30.957Z,199.34
2022-11-12T16:55:30.881Z,200.18
2022-11-12T17:00:30.818Z,199.94
2022-11-12T17:05:30.738Z,202.63
2022-11-12T17:10:30.688Z,203.25
2022-11-12T17:15:30.629Z,204.88
2022-11-12T17:20:30.564Z,205.13
2022-11-12T17:25:30.493Z,206.67
2022-11-12T17:30:30.448Z,207.70
2022-11-12T17:35:30.446Z,208.22
2022-11-12T17:40:30.295Z,208.88
2022-11-12T17:45:30.242Z,209.27
2022-11-12T17:50:30.155Z,210.60
2022-11-12T17:55:30.083Z,209.80
2022-11-12T18:00:30.034Z,211.14
2022-11-12T18:05:29.933Z,211.14
2022-11-12T18:10:29.894Z,211.54
2022-11-12T18:15:29.854Z,211.68
2022-11-12T18:20:29.768Z,212.49
2022-11-12T18:25:29.695Z,213.72
2022-11-12T18:30:29.646Z,213.04
2022-11-12T18:35:30.118Z,213.86
2022-11-12T18:40:29.497Z,214.83
2022-11-12T18:45:29.438Z,215.11
2022-11-12T18:50:29.391Z,216.09
2022-11-12T18:55:29.318Z,216.65
2022-11-12T19:00:29.274Z,217.36
2022-11-12T19:05:29.172Z,217.22
2022-11-12T19:10:29.097Z,218.36
2022-11-12T19:15:29.057Z,217.50
2022-11-12T19:20:28.991Z,219.37
2022-11-12T19:25:28.891Z,219.37
2022-11-12T19:30:28.899Z,220.39
2022-11-12T19:35:28.789Z,220.54
2022-11-12T19:40:28.740Z,220.83
2022-11-12T19:45:28.651Z,221.13
2022-11-12T19:50:28.594Z,223.51
2022-11-12T19:55:28.503Z,223.06
2022-11-12T20:00:28.454Z,223.81
2022-11-12T20:05:28.384Z,223.96
2022-11-12T20:10:28.331Z,224.27
2022-11-12T20:15:28.254Z,225.49
2022-11-12T20:20:28.175Z,225.79
2022-11-12T20:25:28.388Z,225.64
2022-11-12T20:30:28.058Z,226.56
2022-11-12T20:35:27.968Z,227.96
2022-11-12T20:40:27.948Z,226.87
2022-11-12T20:45:27.899Z,228.43
2022-11-12T20:50:27.791Z,228.43
2022-11-12T20:55:27.736Z,229.22
2022-11-12T21:00:27.665Z,230.50
2022-11-12T21:05:27.580Z,230.82
2022-11-12T21:10:27.521Z,231.14
2022-11-12T21:15:27.462Z,231.79
2022-11-12T21:20:27.406Z,231.95
2022-11-12T21:25:27.313Z,231.30
2022-11-12T21:30:27.276Z,233.09
2022-11-12T21:35:27.182Z,234.07
2022-11-12T21:40:27.146Z,232.60
2022-11-12T21:45:27.047Z,231.79
2022-11-12T21:50:26.992Z,232.76
2022-11-12T21:55:26.931Z,233.42
2022-11-12T22:00:41.692Z,233.09
2022-11-12T22:05:27.792Z,234.07
2022-11-12T22:10:26.748Z,233.74
2022-11-12T22:15:26.665Z,234.74
2022-11-12T22:20:26.617Z,234.24
2022-11-12T22:25:26.549Z,234.07
2022-11-12T22:30:26.493Z,233.91
2022-11-12T22:35:26.400Z,234.74
2022-11-12T22:40:26.367Z,235.40
2022-11-12T22:45:26.272Z,234.74
2022-11-12T22:50:26.214Z,235.40
2022-11-12T22:55:26.142Z,236.92
2022-11-12T23:00:26.066Z,235.57
2022-11-12T23:05:25.998Z,237.76
2022-11-12T23:10:25.969Z,238.28
2022-11-12T23:15:25.867Z,238.28
2022-11-12T23:20:25.800Z,239.65
2022-11-12T23:25:25.732Z,238.96
2022-11-12T23:30:25.679Z,239.14
2022-11-12T23:35:25.600Z,240.52
2022-11-12T23:40:30.763Z,240.52
2022-11-12T23:45:26.477Z,240.35
2022-11-12T23:50:25.392Z,240.70
2022-11-12T23:55:27.624Z,241.75
